Time;durP1;ratioP1;P1;durP2;ratioP2;P2;SDS_P1;SDS_P2;PMS_P1;PMS_P2;Temp;Humidity;BMP_temperature;BMP_pressure;BME280_temperature;BME280_humidity;BME280_pressure;Samples;Min_cycle;Max_cycle;Signal;HPM_P1;HPM_P2
2023/03/27 00:00:25;;;;;;;;;9.00;8.00;;;;;13.41;59.67;97183.94;6257858;27;96946;-65
2023/03/27 00:03:31;;;;;;;;;8.25;7.25;;;;;13.43;59.52;97179.06;6262608;27;96763;-65
2023/03/27 00:06:34;;;;;;;;;8.40;7.00;;;;;13.47;59.29;97190.13;6277941;27;96854;-66
2023/03/27 00:09:38;;;;;;;;;10.00;9.00;;;;;13.49;59.51;97185.22;6277673;27;96291;-67
2023/03/27 00:12:43;;;;;;;;;7.00;6.25;;;;;13.52;59.30;97184.69;6279151;27;96648;-67
2023/03/27 00:15:46;;;;;;;;;7.00;7.00;;;;;13.53;59.13;97178.19;6262516;27;97481;-66
2023/03/27 00:18:51;;;;;;;;;7.00;7.00;;;;;13.53;59.20;97180.88;6245850;27;97582;-66
2023/03/27 00:21:55;;;;;;;;;6.60;6.00;;;;;13.51;59.04;97176.81;6267587;27;96737;-65
2023/03/27 00:24:58;;;;;;;;;5.00;5.00;;;;;13.53;58.57;97178.19;6256831;27;96269;-65
2023/03/27 00:28:01;;;;;;;;;5.60;5.60;;;;;13.53;58.36;97177.38;6266304;27;96923;-67
2023/03/27 00:31:10;;;;;;;;;8.00;7.00;;;;;13.48;58.42;97174.69;6265078;27;98350;-66
2023/03/27 00:34:15;;;;;;;;;5.80;5.80;;;;;13.40;58.63;97185.03;6248785;27;98384;-66
2023/03/27 00:37:18;;;;;;;;;8.00;7.00;;;;;13.35;59.16;97181.53;6264934;27;96740;-66
2023/03/27 00:40:22;;;;;;;;;7.20;7.00;;;;;13.22;59.45;97171.34;6258429;27;96316;-65
2023/03/27 00:43:27;;;;;;;;;7.00;7.00;;;;;13.20;59.41;97173.50;6224530;28;98333;-66
2023/03/27 00:46:40;;;;;;;;;7.00;6.20;;;;;13.25;59.81;97176.19;6253635;27;96433;-66
2023/03/27 00:49:45;;;;;;;;;7.80;7.80;;;;;13.25;60.14;97177.00;6264900;27;96733;-66
2023/03/27 00:52:55;;;;;;;;;8.00;8.00;;;;;13.28;60.35;97165.63;6267009;27;96185;-66
2023/03/27 00:56:01;;;;;;;;;9.50;9.50;;;;;13.28;59.96;97160.22;6257714;27;96427;-65
2023/03/27 00:59:08;;;;;;;;;9.80;9.00;;;;;13.31;59.87;97159.66;6241355;27;96438;-65
2023/03/27 01:02:13;;;;;;;;;10.00;10.00;;;;;13.29;59.74;97155.63;6247878;27;97054;-66
2023/03/27 01:05:20;;;;;;;;;9.60;9.00;;;;;13.35;59.52;97159.88;6246805;27;96944;-66
2023/03/27 01:08:26;;;;;;;;;7.50;7.50;;;;;13.35;59.16;97149.06;6257061;27;98317;-66
2023/03/27 01:11:39;;;;;;;;;11.00;10.00;;;;;13.41;58.96;97150.66;6257416;27;96910;-65
2023/03/27 01:14:54;;;;;;;;;10.00;10.00;;;;;13.42;58.97;97155.78;6241445;28;96643;-66
2023/03/27 01:18:14;;;;;;;;;11.60;9.60;;;;;13.37;58.69;97144.19;6240215;27;96675;-66
2023/03/27 01:21:55;;;;;;;;;6.80;6.20;;;;;13.31;58.97;97134.47;6264877;27;96807;-66
2023/03/27 01:25:54;;;;;;;;;11.00;10.00;;;;;13.29;59.10;97128.56;6264856;27;98030;-65
2023/03/27 01:29:03;;;;;;;;;9.00;9.00;;;;;13.29;59.29;97120.44;6265300;27;98290;-66
2023/03/27 01:32:31;;;;;;;;;9.80;9.80;;;;;13.16;59.67;97113.75;6265413;27;96200;-66
2023/03/27 01:36:23;;;;;;;;;8.60;8.00;;;;;13.15;59.68;97114.81;6281420;27;96784;-66
2023/03/27 01:39:34;;;;;;;;;9.50;9.00;;;;;13.08;59.88;97108.09;6260767;27;96275;-66
2023/03/27 01:42:48;;;;;;;;;8.00;8.00;;;;;13.10;59.72;97104.00;6265791;27;96753;-66
2023/03/27 01:45:56;;;;;;;;;6.60;5.60;;;;;13.04;59.75;97088.91;6263887;27;96504;-65
2023/03/27 01:49:05;;;;;;;;;6.50;6.00;;;;;13.06;59.64;97094.03;6241307;28;97621;-66
2023/03/27 01:52:14;;;;;;;;;8.00;8.00;;;;;13.06;59.79;97088.63;6257211;27;96332;-66
2023/03/27 01:55:26;;;;;;;;;7.00;6.00;;;;;13.07;59.63;97091.06;6239576;28;96199;-66
2023/03/27 01:58:36;;;;;;;;;8.50;8.00;;;;;13.03;59.31;97082.69;6263349;27;96580;-65
2023/03/27 02:01:44;;;;;;;;;9.00;9.00;;;;;12.96;59.61;97070.56;6281317;27;96509;-66
2023/03/27 02:04:54;;;;;;;;;9.75;8.00;;;;;13.09;59.65;97085.38;6263023;27;96899;-66
2023/03/27 02:08:04;;;;;;;;;11.00;9.20;;;;;13.10;59.59;97079.66;6263441;27;96314;-66
2023/03/27 02:11:10;;;;;;;;;13.00;12.00;;;;;13.05;60.00;97074.28;6264281;27;96226;-66
2023/03/27 02:14:20;;;;;;;;;13.60;12.60;;;;;13.06;60.33;97075.09;6267331;27;96314;-66
2023/03/27 02:17:25;;;;;;;;;12.40;12.00;;;;;13.00;60.52;97060.78;6280581;27;96225;-66
2023/03/27 02:20:30;;;;;;;;;13.20;12.00;;;;;12.93;60.87;97044.91;6263631;27;96484;-66
2023/03/27 02:23:36;;;;;;;;;17.00;15.40;;;;;12.94;61.13;97049.22;6263749;27;96862;-66
2023/03/27 02:26:41;;;;;;;;;14.00;14.00;;;;;12.98;60.84;97052.16;6263874;27;96581;-66
2023/03/27 02:29:56;;;;;;;;;15.00;14.00;;;;;12.99;61.00;97059.19;6280152;27;97076;-66
2023/03/27 02:33:13;;;;;;;;;16.00;14.00;;;;;13.00;61.03;97064.31;6243050;27;96390;-66
2023/03/27 02:36:30;;;;;;;;;15.00;14.00;;;;;12.96;61.41;97060.56;6251782;27;96221;-66
2023/03/27 02:39:41;;;;;;;;;15.60;14.60;;;;;12.94;61.48;97057.34;6263360;27;96245;-66
2023/03/27 02:42:57;;;;;;;;;15.80;14.00;;;;;12.98;61.32;97058.38;6279589;27;97480;-66
2023/03/27 02:46:10;;;;;;;;;17.00;15.00;;;;;12.99;61.34;97057.31;6279897;27;96454;-66
2023/03/27 02:49:19;;;;;;;;;13.80;13.00;;;;;12.99;61.37;97062.72;6246202;27;96886;-66
2023/03/27 02:52:28;;;;;;;;;16.00;15.00;;;;;13.00;61.27;97066.19;6263250;27;96296;-66
2023/03/27 02:55:37;;;;;;;;;16.00;14.60;;;;;13.02;61.31;97058.63;6262611;27;96351;-67
2023/03/27 02:58:51;;;;;;;;;16.00;13.75;;;;;12.95;61.37;97060.84;6255019;27;96393;-65
2023/03/27 03:02:14;;;;;;;;;16.00;14.80;;;;;13.01;61.39;97063.22;6270906;27;96211;-65
2023/03/27 03:05:30;;;;;;;;;16.40;15.00;;;;;12.99;61.40;97072.72;6274202;27;96813;-66
2023/03/27 03:08:37;;;;;;;;;12.20;11.20;;;;;12.91;60.84;97067.88;6249271;27;97005;-67
2023/03/27 03:11:50;;;;;;;;;13.00;13.00;;;;;12.94;60.93;97078.97;6230901;27;96710;-66
2023/03/27 03:14:55;;;;;;;;;13.80;12.40;;;;;12.92;61.12;97078.44;6249595;27;96870;-64
2023/03/27 03:17:58;;;;;;;;;12.00;11.00;;;;;12.93;61.44;97090.06;6228509;27;98471;-65
2023/03/27 03:21:02;;;;;;;;;11.00;10.80;;;;;12.97;61.08;97089.22;6251758;27;96608;-66
2023/03/27 03:24:06;;;;;;;;;15.60;14.00;;;;;12.95;60.77;97085.97;6268802;27;96886;-66
2023/03/27 03:27:11;;;;;;;;;15.00;13.60;;;;;12.95;60.71;97091.38;6248435;27;96343;-66
2023/03/27 03:30:30;;;;;;;;;13.00;12.00;;;;;12.93;60.96;97087.38;6234072;27;97546;-65
2023/03/27 03:33:40;;;;;;;;;15.00;14.00;;;;;12.90;60.85;97085.22;6252259;27;98161;-66
2023/03/27 03:36:43;;;;;;;;;12.80;11.80;;;;;12.90;61.05;97093.34;6251235;27;96433;-66
2023/03/27 03:39:47;;;;;;;;;13.40;12.40;;;;;12.88;61.22;97088.22;6255089;27;96262;-66
2023/03/27 03:42:53;;;;;;;;;16.50;15.00;;;;;12.88;61.18;97084.69;6253081;27;96291;-66
2023/03/27 03:46:01;;;;;;;;;12.00;11.00;;;;;12.87;61.24;97091.19;6260130;27;96368;-65
2023/03/27 03:49:05;;;;;;;;;12.20;11.80;;;;;12.86;61.46;97078.75;6255753;27;96542;-65
2023/03/27 03:52:09;;;;;;;;;15.00;14.00;;;;;12.80;61.39;97075.28;6274196;27;96638;-66
2023/03/27 03:55:14;;;;;;;;;10.00;10.00;;;;;12.73;60.98;97079.38;6251548;27;96238;-66
2023/03/27 03:58:18;;;;;;;;;9.60;9.60;;;;;12.73;60.93;97066.66;6270060;27;96940;-66
2023/03/27 04:01:24;;;;;;;;;10.80;10.60;;;;;12.79;60.78;97078.25;6250312;27;97996;-66
2023/03/27 04:04:33;;;;;;;;;16.60;16.40;;;;;12.73;60.59;97077.47;6253568;27;96362;-66
2023/03/27 04:07:41;;;;;;;;;10.40;10.00;;;;;12.77;60.45;97075.00;6246187;27;98773;-66
2023/03/27 04:11:10;;;;;;;;;11.60;11.00;;;;;12.82;60.63;97081.19;6243847;27;97196;-67
2023/03/27 04:14:35;;;;;;;;;9.40;8.60;;;;;12.82;60.41;97075.00;6221633;28;96176;-66
2023/03/27 04:17:48;;;;;;;;;13.50;11.50;;;;;12.83;60.25;97069.31;6236199;27;96325;-69
2023/03/27 04:20:53;;;;;;;;;10.00;9.00;;;;;12.84;60.42;97072.81;6229614;27;96550;-68
2023/03/27 04:24:01;;;;;;;;;10.00;9.00;;;;;12.89;59.99;97067.38;6239966;27;96814;-69
2023/03/27 04:27:18;;;;;;;;;11.60;11.00;;;;;12.94;59.97;97075.47;6242908;27;96389;-69
2023/03/27 04:30:49;;;;;;;;;12.00;11.00;;;;;12.91;60.08;97071.41;6242305;27;96361;-69
2023/03/27 04:34:12;;;;;;;;;10.00;10.00;;;;;12.91;60.28;97065.19;6253549;27;96283;-69
2023/03/27 04:37:40;;;;;;;;;10.40;9.40;;;;;12.88;59.80;97069.28;6248281;27;96452;-69
2023/03/27 04:41:07;;;;;;;;;10.80;9.00;;;;;12.82;60.36;97067.69;6234561;27;97845;-68
2023/03/27 04:44:11;;;;;;;;;13.00;10.25;;;;;12.88;60.38;97069.28;6227120;27;96520;-69
2023/03/27 04:47:16;;;;;;;;;13.80;11.00;;;;;12.90;60.69;97058.97;6238436;27;96304;-68
2023/03/27 04:50:21;;;;;;;;;15.00;12.00;;;;;12.92;60.54;97069.50;6261202;27;96774;-69
2023/03/27 04:53:29;;;;;;;;;14.40;12.00;;;;;12.92;60.91;97067.63;6238796;27;96917;-69
2023/03/27 04:56:35;;;;;;;;;13.75;12.00;;;;;12.97;60.68;97069.47;6282588;27;96307;-70
2023/03/27 04:59:38;;;;;;;;;13.00;12.00;;;;;13.06;60.52;97064.28;6274185;27;97234;-69
2023/03/27 05:03:07;;;;;;;;;12.00;11.00;;;;;13.07;60.34;97072.13;6257538;27;96846;-69
2023/03/27 05:06:41;;;;;;;;;13.60;13.60;;;;;13.10;60.34;97074.25;6249517;27;96643;-69
2023/03/27 05:09:48;;;;;;;;;15.00;14.40;;;;;13.13;60.16;97064.81;6262727;27;97289;-69
2023/03/27 05:12:54;;;;;;;;;12.60;12.20;;;;;13.17;60.10;97065.84;6265289;27;97030;-69
2023/03/27 05:16:01;;;;;;;;;14.60;14.00;;;;;13.20;60.01;97076.09;6282161;27;97559;-69
2023/03/27 05:19:13;;;;;;;;;14.40;13.60;;;;;13.26;60.17;97069.56;6278130;27;96377;-69
2023/03/27 05:22:25;;;;;;;;;14.00;13.00;;;;;13.28;59.94;97062.81;6262947;27;96365;-69
2023/03/27 05:25:39;;;;;;;;;16.80;15.40;;;;;13.29;59.72;97064.38;6261116;27;98073;-68
2023/03/27 05:28:47;;;;;;;;;13.00;13.00;;;;;13.28;59.47;97065.50;6280608;27;96607;-69
2023/03/27 05:31:51;;;;;;;;;10.50;9.50;;;;;13.27;59.24;97072.00;6263552;27;96219;-69
2023/03/27 05:35:12;;;;;;;;;9.00;8.00;;;;;13.29;58.86;97069.03;6266732;27;96224;-68
2023/03/27 05:38:21;;;;;;;;;10.00;9.80;;;;;13.28;58.65;97073.63;6282811;27;96675;-68
2023/03/27 05:41:57;;;;;;;;;8.60;8.00;;;;;13.23;58.73;97076.38;6261507;27;96691;-68
2023/03/27 05:45:01;;;;;;;;;9.40;8.80;;;;;13.19;58.76;97063.69;6260913;27;96861;-68
2023/03/27 05:48:05;;;;;;;;;12.40;12.40;;;;;13.23;58.37;97079.06;6296593;27;96817;-68
2023/03/27 05:51:14;;;;;;;;;11.00;11.00;;;;;13.20;58.94;97084.22;6269908;27;96855;-69
2023/03/27 05:54:19;;;;;;;;;13.00;12.40;;;;;13.23;58.58;97089.09;6286762;27;96677;-68
2023/03/27 05:57:28;;;;;;;;;13.00;13.00;;;;;13.21;58.23;97092.06;6288162;27;96350;-68
2023/03/27 06:00:35;;;;;;;;;14.00;14.00;;;;;13.19;58.41;97098.84;6250348;27;98527;-68
2023/03/27 06:03:38;;;;;;;;;13.80;13.80;;;;;13.22;58.52;97101.81;6218468;28;98563;-69
2023/03/27 06:06:50;;;;;;;;;12.50;11.00;;;;;13.16;58.04;97102.09;6219615;28;96641;-69
2023/03/27 06:09:55;;;;;;;;;14.00;12.00;;;;;13.19;57.86;97112.38;6236407;28;96577;-68
2023/03/27 06:13:22;;;;;;;;;14.00;12.00;;;;;13.21;57.83;97112.91;6231790;28;96823;-68
2023/03/27 06:16:41;;;;;;;;;14.00;13.00;;;;;13.18;57.80;97114.28;6238928;28;96251;-69
2023/03/27 06:20:11;;;;;;;;;16.00;14.50;;;;;13.08;57.99;97108.91;6231887;27;96307;-69
2023/03/27 06:23:16;;;;;;;;;14.50;14.00;;;;;13.10;58.01;97111.31;6255939;27;96520;-67
2023/03/27 06:26:21;;;;;;;;;13.00;13.00;;;;;13.12;57.96;97118.09;6256144;27;96251;-69
2023/03/27 06:29:28;;;;;;;;;15.00;13.00;;;;;13.14;58.24;97125.94;6256300;27;96246;-69
2023/03/27 06:32:34;;;;;;;;;13.75;13.00;;;;;13.12;58.21;97123.50;6240411;27;98497;-69
2023/03/27 06:35:45;;;;;;;;;16.40;15.80;;;;;13.12;58.24;97125.41;6246790;27;98464;-70
2023/03/27 06:39:03;;;;;;;;;14.00;13.00;;;;;13.18;58.77;97133.22;6246743;27;98103;-69
2023/03/27 06:42:11;;;;;;;;;13.60;12.00;;;;;13.18;58.22;97133.22;6263161;27;98484;-69
2023/03/27 06:45:36;;;;;;;;;13.00;13.00;;;;;13.23;58.58;97124.25;6251303;27;96657;-70
2023/03/27 06:48:52;;;;;;;;;18.00;15.40;;;;;13.21;58.54;97129.94;6252370;27;96540;-70
2023/03/27 06:51:56;;;;;;;;;16.00;15.00;;;;;13.22;58.73;97136.16;6248247;27;99084;-69
2023/03/27 06:54:59;;;;;;;;;17.00;15.80;;;;;13.21;59.21;97139.94;6275274;27;97424;-70
2023/03/27 06:58:04;;;;;;;;;16.00;15.00;;;;;13.25;59.61;97143.72;6267605;27;96361;-69
2023/03/27 07:01:07;;;;;;;;;16.00;15.00;;;;;13.27;59.43;97141.53;6249062;27;96708;-68
2023/03/27 07:04:28;;;;;;;;;15.20;14.20;;;;;13.27;59.74;97152.38;6233519;27;98338;-69
2023/03/27 07:07:56;;;;;;;;;15.00;14.50;;;;;13.28;59.41;97154.81;6242804;27;96666;-69
2023/03/27 07:11:03;;;;;;;;;13.80;13.00;;;;;13.33;59.54;97153.97;6247691;27;96270;-69
2023/03/27 07:14:30;;;;;;;;;12.00;11.00;;;;;13.32;59.54;97145.03;6265270;27;96844;-68
2023/03/27 07:17:34;;;;;;;;;12.00;11.75;;;;;13.33;59.60;97140.44;6233349;27;98748;-68
2023/03/27 07:20:53;;;;;;;;;13.00;12.00;;;;;13.47;59.49;97149.53;6249743;27;98462;-69
2023/03/27 07:23:59;;;;;;;;;18.00;15.00;;;;;13.57;59.44;97146.75;6246987;27;96395;-70
2023/03/27 07:27:11;;;;;;;;;13.00;13.00;;;;;13.66;59.47;97146.94;6264137;27;96744;-68
2023/03/27 07:30:17;;;;;;;;;13.75;12.00;;;;;13.69;58.82;97149.88;6263313;27;96524;-68
2023/03/27 07:33:21;;;;;;;;;11.00;11.00;;;;;13.77;58.60;97152.00;6250354;27;96630;-69
2023/03/27 07:36:25;;;;;;;;;14.00;13.50;;;;;13.77;58.59;97152.00;6248119;27;96397;-69
2023/03/27 07:39:35;;;;;;;;;16.00;16.00;;;;;13.76;59.25;97153.06;6247180;27;96445;-69
2023/03/27 07:42:43;;;;;;;;;14.00;12.75;;;;;13.80;59.33;97158.72;6266360;27;96417;-69
2023/03/27 07:45:54;;;;;;;;;11.80;11.00;;;;;13.83;58.74;97158.97;6230562;27;98727;-69
2023/03/27 07:49:00;;;;;;;;;13.00;12.75;;;;;13.83;58.44;97147.31;6267480;27;96244;-69
2023/03/27 07:52:05;;;;;;;;;12.00;11.20;;;;;13.87;57.95;97156.50;6262477;27;96122;-69
2023/03/27 07:55:17;;;;;;;;;10.00;10.00;;;;;13.85;57.78;97161.38;6262148;27;96319;-69
2023/03/27 07:58:29;;;;;;;;;12.00;11.00;;;;;13.83;58.30;97163.56;6261298;27;96445;-69
2023/03/27 08:01:34;;;;;;;;;13.40;12.40;;;;;13.81;58.79;97163.06;6262632;27;96931;-69
2023/03/27 08:04:38;;;;;;;;;14.00;13.25;;;;;13.87;58.95;97165.44;6262320;27;96330;-68
2023/03/27 08:07:45;;;;;;;;;12.00;12.00;;;;;13.89;59.13;97159.72;6244046;27;97350;-69
2023/03/27 08:11:03;;;;;;;;;12.40;11.00;;;;;13.94;58.46;97164.28;6261915;27;96283;-69
2023/03/27 08:14:15;;;;;;;;;12.00;12.00;;;;;14.00;58.74;97174.00;6262213;27;96843;-68
2023/03/27 08:17:20;;;;;;;;;11.20;9.80;;;;;13.99;58.53;97175.88;6262111;27;96854;-69
2023/03/27 08:20:24;;;;;;;;;11.00;10.75;;;;;14.02;58.11;97179.94;6245100;27;99305;-69
2023/03/27 08:23:29;;;;;;;;;9.00;9.00;;;;;13.99;57.52;97181.31;6245430;27;99116;-69
2023/03/27 08:26:51;;;;;;;;;10.50;8.50;;;;;13.97;57.77;97182.69;6263241;27;96238;-69
2023/03/27 08:29:56;;;;;;;;;7.20;7.00;;;;;13.98;58.00;97179.69;6279285;27;96423;-70
2023/03/27 08:33:01;;;;;;;;;8.40;8.00;;;;;13.99;58.26;97180.50;6261840;27;96714;-68
2023/03/27 08:36:06;;;;;;;;;8.00;7.00;;;;;13.99;57.51;97181.31;6258729;27;96374;-69
2023/03/27 08:39:12;;;;;;;;;8.40;8.40;;;;;14.03;57.51;97184.25;6220227;28;98468;-69
2023/03/27 08:42:42;;;;;;;;;11.00;10.00;;;;;13.99;57.96;97185.91;6224657;28;96768;-69
2023/03/27 08:45:52;;;;;;;;;10.00;9.00;;;;;13.93;58.80;97179.72;6224714;28;96877;-69
2023/03/27 08:49:06;;;;;;;;;12.00;12.00;;;;;13.91;58.73;97186.53;6241215;28;96249;-69
2023/03/27 08:52:14;;;;;;;;;10.00;9.00;;;;;13.90;58.61;97188.44;6224177;28;98539;-69
2023/03/27 08:55:33;;;;;;;;;11.60;11.40;;;;;13.90;58.51;97188.44;6271148;27;96449;-69
2023/03/27 08:58:56;;;;;;;;;16.80;14.80;;;;;13.83;59.33;97188.75;6255014;27;99288;-69
2023/03/27 09:02:10;;;;;;;;;11.80;11.00;;;;;13.74;58.74;97182.34;6249041;27;96320;-69
2023/03/27 09:05:18;;;;;;;;;12.00;11.00;;;;;13.79;58.87;97193.13;6265734;27;96135;-68
2023/03/27 09:08:34;;;;;;;;;12.60;10.60;;;;;13.83;58.70;97193.34;6264748;27;96305;-69
2023/03/27 09:11:53;;;;;;;;;11.00;10.00;;;;;13.77;58.79;97191.81;6265817;27;96268;-69
2023/03/27 09:15:10;;;;;;;;;13.00;11.00;;;;;13.75;58.41;97196.69;6279911;27;96325;-69
2023/03/27 09:18:20;;;;;;;;;11.00;10.00;;;;;13.76;59.02;97196.41;6243865;27;97518;-69
2023/03/27 09:21:38;;;;;;;;;11.75;11.00;;;;;13.83;58.38;97204.19;6253470;27;97965;-69
2023/03/27 09:24:48;;;;;;;;;9.00;8.00;;;;;13.72;57.61;97200.78;6251184;27;96748;-69
2023/03/27 09:28:02;;;;;;;;;8.00;8.00;;;;;13.72;56.28;97208.09;6258959;27;99040;-69
2023/03/27 09:31:23;;;;;;;;;9.00;9.00;;;;;13.69;55.93;97209.44;6266523;27;96649;-69
2023/03/27 09:34:31;;;;;;;;;8.00;7.00;;;;;13.68;56.51;97213.25;6265639;27;96332;-68
2023/03/27 09:37:36;;;;;;;;;10.40;10.40;;;;;13.54;56.00;97217.69;6232681;28;98426;-69
2023/03/27 09:40:46;;;;;;;;;10.40;10.40;;;;;13.42;56.29;97211.81;6259908;27;96274;-69
2023/03/27 09:43:55;;;;;;;;;10.00;10.00;;;;;13.38;56.64;97213.47;6264718;27;98671;-70
2023/03/27 09:47:04;;;;;;;;;11.00;9.75;;;;;13.30;57.07;97222.16;6264723;27;96983;-70
2023/03/27 09:50:24;;;;;;;;;9.50;9.50;;;;;13.31;56.82;97221.88;6265065;27;96138;-69
2023/03/27 09:53:57;;;;;;;;;9.75;9.75;;;;;13.26;57.41;97229.22;6279811;27;96397;-68
2023/03/27 09:57:07;;;;;;;;;8.00;8.00;;;;;13.19;57.69;97228.72;6282351;27;96274;-69
2023/03/27 10:00:27;;;;;;;;;8.40;8.00;;;;;13.05;56.33;97243.94;6264884;27;96754;-68
2023/03/27 10:03:37;;;;;;;;;6.00;6.00;;;;;12.88;55.59;97244.25;6265290;27;96421;-69
2023/03/27 10:06:46;;;;;;;;;4.50;4.00;;;;;12.76;55.15;97249.13;6264737;27;96860;-69
2023/03/27 10:10:11;;;;;;;;;5.00;5.00;;;;;12.67;54.90;97253.50;6246673;27;96650;-70
2023/03/27 10:13:37;;;;;;;;;4.60;4.60;;;;;12.53;54.92;97259.50;6266183;27;96433;-69
2023/03/27 10:16:41;;;;;;;;;4.00;4.00;;;;;12.27;55.28;97249.78;6247643;27;96684;-69
2023/03/27 10:19:46;;;;;;;;;6.00;6.00;;;;;12.30;55.72;97270.88;6282679;27;96659;-70
2023/03/27 10:22:55;;;;;;;;;6.00;5.00;;;;;12.35;56.10;97276.28;6248197;27;96417;-69
2023/03/27 10:26:08;;;;;;;;;6.60;6.00;;;;;12.37;56.51;97265.19;6248605;27;96737;-69
2023/03/27 10:29:24;;;;;;;;;6.00;6.00;;;;;12.36;56.64;97277.09;6265249;27;96678;-69
2023/03/27 10:32:43;;;;;;;;;8.80;6.80;;;;;12.29;56.83;97280.06;6265269;27;96266;-70
2023/03/27 10:36:10;;;;;;;;;8.00;7.00;;;;;12.28;57.05;97289.25;6265532;27;96459;-69
2023/03/27 10:39:14;;;;;;;;;12.00;10.60;;;;;12.25;57.43;97289.78;6264328;27;96702;-69
2023/03/27 10:42:42;;;;;;;;;15.00;13.00;;;;;12.12;57.20;97293.03;6256701;27;96705;-69
2023/03/27 10:45:50;;;;;;;;;13.00;13.00;;;;;12.05;57.15;97296.00;6247431;27;96791;-70
2023/03/27 10:49:00;;;;;;;;;15.40;15.40;;;;;11.96;56.78;97303.03;6264319;27;96832;-70
2023/03/27 10:52:15;;;;;;;;;16.60;16.00;;;;;11.86;57.82;97300.31;6276041;27;96232;-70
2023/03/27 10:55:47;;;;;;;;;19.80;16.80;;;;;11.87;57.88;97310.03;6239403;27;96655;-70
2023/03/27 10:58:59;;;;;;;;;16.80;16.00;;;;;11.93;58.18;97313.53;6221610;28;97231;-69
2023/03/27 11:02:15;;;;;;;;;16.40;15.40;;;;;11.88;57.53;97319.75;6258315;27;98988;-69
2023/03/27 11:05:23;;;;;;;;;11.20;10.20;;;;;11.74;56.67;97324.03;6262000;27;96488;-69
2023/03/27 11:08:33;;;;;;;;;12.20;11.80;;;;;11.70;56.76;97329.13;6271895;27;96213;-69
2023/03/27 11:11:41;;;;;;;;;15.00;13.60;;;;;11.49;56.52;97335.53;6247097;27;96829;-70
2023/03/27 11:14:50;;;;;;;;;16.50;14.50;;;;;11.17;56.59;97351.06;6264643;27;96301;-69
2023/03/27 11:18:04;;;;;;;;;14.00;13.60;;;;;11.05;57.06;97350.47;6263032;27;96295;-69
2023/03/27 11:21:21;;;;;;;;;18.60;18.00;;;;;10.93;56.58;97369.56;6263801;27;96229;-70
2023/03/27 11:24:40;;;;;;;;;15.80;15.20;;;;;10.80;56.83;97388.88;6264135;27;96252;-69
2023/03/27 11:27:57;;;;;;;;;20.60;19.00;;;;;10.78;57.12;97393.72;6279835;27;96239;-69
2023/03/27 11:31:13;;;;;;;;;19.50;18.50;;;;;10.64;56.79;97398.75;6263683;27;96308;-69
2023/03/27 11:34:25;;;;;;;;;22.40;20.40;;;;;10.60;56.43;97423.78;6245858;27;96883;-69
2023/03/27 11:37:45;;;;;;;;;17.50;17.50;;;;;10.29;56.15;97431.59;6261954;27;96358;-68
2023/03/27 11:40:50;;;;;;;;;21.00;19.40;;;;;10.25;56.92;97432.34;6262210;27;98539;-70
2023/03/27 11:43:54;;;;;;;;;20.00;19.50;;;;;10.14;56.43;97438.66;6279378;27;96228;-70
2023/03/27 11:47:36;;;;;;;;;18.00;16.00;;;;;9.88;55.69;97442.97;6263110;27;98739;-70
2023/03/27 11:50:50;;;;;;;;;20.00;17.60;;;;;9.77;55.91;97450.13;6280511;27;96449;-70
2023/03/27 11:54:05;;;;;;;;;22.20;21.60;;;;;9.58;55.85;97451.47;6263607;27;96893;-69
2023/03/27 11:57:26;;;;;;;;;15.60;15.60;;;;;9.53;56.19;97459.47;6267734;27;96222;-69
2023/03/27 12:00:48;;;;;;;;;19.60;18.60;;;;;9.41;57.13;97461.50;6261602;27;96427;-68
2023/03/27 12:04:27;;;;;;;;;19.75;18.75;;;;;9.40;57.00;97490.25;6262270;27;96539;-69
2023/03/27 12:07:57;;;;;;;;;21.00;20.60;;;;;9.44;56.70;97502.16;6248521;27;98979;-69
2023/03/27 12:11:07;;;;;;;;;21.00;18.00;;;;;9.35;56.52;97505.50;6262674;27;96118;-68
2023/03/27 12:14:45;;;;;;;;;16.00;15.00;;;;;9.44;56.00;97536.28;6280762;27;96296;-69
2023/03/27 12:18:02;;;;;;;;;14.50;14.50;;;;;9.42;55.91;97523.13;6251101;27;96620;-69
2023/03/27 12:21:18;;;;;;;;;15.25;14.25;;;;;9.43;55.09;97566.97;6254801;27;96259;-69
2023/03/27 12:24:40;;;;;;;;;15.00;15.00;;;;;9.25;53.83;97569.91;6254845;27;96197;-69
2023/03/27 12:28:44;;;;;;;;;14.00;14.00;;;;;9.15;54.64;97570.53;6246742;27;96589;-68
2023/03/27 12:32:12;;;;;;;;;13.00;12.00;;;;;9.26;54.84;97590.34;6253850;27;96199;-69
2023/03/27 12:35:21;;;;;;;;;11.00;10.00;;;;;9.27;54.17;97595.50;6285177;27;96441;-69
2023/03/27 12:38:30;;;;;;;;;9.00;9.00;;;;;9.23;53.14;97607.00;6282972;27;96510;-70
2023/03/27 12:41:37;;;;;;;;;10.50;10.00;;;;;9.23;53.00;97610.50;6265313;27;96217;-70
2023/03/27 12:45:12;;;;;;;;;10.00;10.00;;;;;9.22;52.96;97614.25;6282865;27;97627;-70
2023/03/27 12:48:19;;;;;;;;;9.20;8.80;;;;;9.00;52.37;97605.25;6278547;27;96747;-69
2023/03/27 12:51:37;;;;;;;;;9.00;8.60;;;;;9.02;53.35;97638.09;6275070;27;96177;-68
2023/03/27 12:55:04;;;;;;;;;11.00;10.20;;;;;8.90;53.57;97650.75;6265693;27;96332;-69
2023/03/27 12:58:35;;;;;;;;;9.00;9.00;;;;;8.93;53.51;97648.41;6242237;27;96062;-68
2023/03/27 13:02:46;;;;;;;;;9.00;8.60;;;;;9.04;53.19;97668.25;6264917;27;99109;-67
2023/03/27 13:06:04;;;;;;;;;11.00;9.00;;;;;9.02;53.34;97678.41;6274746;27;96385;-68
2023/03/27 13:09:28;;;;;;;;;10.80;9.80;;;;;9.13;52.95;97691.81;6264364;27;96603;-68
2023/03/27 13:13:05;;;;;;;;;8.60;8.60;;;;;9.10;51.88;97694.13;6258862;27;96335;-69
2023/03/27 13:16:36;;;;;;;;;8.00;8.00;;;;;9.09;51.38;97708.63;6266597;27;96298;-69
2023/03/27 13:19:53;;;;;;;;;9.60;8.80;;;;;9.05;51.32;97713.69;6284344;27;96176;-69
2023/03/27 13:23:18;;;;;;;;;8.60;8.00;;;;;9.01;51.43;97728.66;6281254;27;96217;-68
2023/03/27 13:26:33;;;;;;;;;8.00;7.00;;;;;9.01;51.49;97730.53;6259482;27;96554;-69
2023/03/27 13:29:40;;;;;;;;;7.00;7.00;;;;;9.16;51.56;97727.31;6263994;27;96289;-69
2023/03/27 13:33:10;;;;;;;;;7.00;7.00;;;;;9.17;51.08;97729.78;6263668;27;96825;-70
2023/03/27 13:36:19;;;;;;;;;7.40;7.00;;;;;9.11;50.89;97746.84;6253523;27;96293;-69
2023/03/27 13:39:24;;;;;;;;;6.20;6.20;;;;;9.16;51.23;97755.03;6267996;27;96500;-69
2023/03/27 13:42:37;;;;;;;;;7.00;7.00;;;;;9.20;50.41;97758.03;6265957;27;96992;-69
2023/03/27 13:45:46;;;;;;;;;9.00;8.00;;;;;9.22;50.23;97766.69;6283542;27;96289;-69
2023/03/27 13:49:21;;;;;;;;;8.50;8.50;;;;;9.12;49.61;97775.38;6264668;27;96522;-69
2023/03/27 13:53:06;;;;;;;;;7.00;6.50;;;;;9.12;49.54;97789.66;6274193;27;96254;-70
2023/03/27 13:56:56;;;;;;;;;7.67;7.67;;;;;9.17;50.17;97794.31;6250447;27;96258;-69
2023/03/27 14:00:48;;;;;;;;;8.00;8.00;;;;;9.01;49.16;97789.66;6283198;27;96318;-69
2023/03/27 14:04:08;;;;;;;;;7.00;7.00;;;;;9.02;49.69;97804.75;6193629;27;96199;-68
2023/03/27 14:07:44;;;;;;;;;9.60;8.60;;;;;8.97;48.03;97801.94;6266203;27;96423;-68
2023/03/27 14:11:15;;;;;;;;;10.00;9.40;;;;;8.93;47.94;97800.81;6266879;27;96375;-69
2023/03/27 14:14:33;;;;;;;;;8.00;8.00;;;;;9.00;47.00;97815.72;6266450;27;96904;-67
2023/03/27 14:18:00;;;;;;;;;9.00;9.00;;;;;8.95;47.14;97818.31;6281988;27;96325;-68
2023/03/27 14:21:08;;;;;;;;;7.80;7.80;;;;;9.05;47.42;97821.22;6284442;27;96569;-69
2023/03/27 14:24:29;;;;;;;;;7.00;7.00;;;;;9.03;47.04;97822.53;6267819;27;96607;-67
2023/03/27 14:27:54;;;;;;;;;10.00;9.00;;;;;8.90;47.15;97846.94;6243889;27;96612;-68
2023/03/27 14:31:06;;;;;;;;;7.00;7.00;;;;;9.03;47.42;97855.59;6255533;27;96924;-69
2023/03/27 14:34:52;;;;;;;;;9.00;8.40;;;;;8.98;47.39;97863.56;6246665;27;96478;-69
2023/03/27 14:38:21;;;;;;;;;13.60;13.00;;;;;9.07;46.45;97861.31;6274808;27;96269;-68
2023/03/27 14:41:25;;;;;;;;;10.00;8.50;;;;;9.08;45.87;97871.84;6247117;27;96103;-68
2023/03/27 14:44:33;;;;;;;;;10.00;10.00;;;;;9.04;45.60;97873.34;6262331;27;98117;-69
2023/03/27 14:47:42;;;;;;;;;9.40;9.40;;;;;9.02;44.81;97878.16;6236631;28;96201;-69
2023/03/27 14:50:49;;;;;;;;;17.00;16.00;;;;;8.99;44.62;97889.34;6237784;28;96967;-69
2023/03/27 14:54:02;;;;;;;;;8.80;8.80;;;;;8.96;43.74;97889.84;6259027;27;96450;-70
2023/03/27 14:57:28;;;;;;;;;16.00;14.00;;;;;8.84;44.00;97898.97;6239644;27;96409;-69
2023/03/27 15:00:37;;;;;;;;;11.00;11.00;;;;;8.78;43.68;97898.03;6239382;28;96200;-69